Aviation Digital Data Service (ADDS)

Output produced by METARs form (1455 UTC 25 January 2020)
found at http://www.aviationweather.gov/metar/data/
 
METAR text: KGTU 251356Z 00000KT 10SM CLR 04/02 A3014 RMK AO2 SLP211 T00390017
Conditions at: KGTU (GEORGETOWN , TX, US) observed 1356 UTC 25 January 2020
Temperature: 3.9°C (39°F)
Dewpoint: 1.7°C (35°F) [RH = 86%]
Pressure (altimeter): 30.14 inches Hg (1020.7 mb)
[Sea-level pressure: 1021.1 mb]
Winds: calm
Visibility: 10 or more miles (16+ km)
Ceiling: at least 12,000 feet AGL
Clouds: sky clear below 12,000 feet AGL
Weather: no significant weather observed at this time